Fabre, Canada
Current Conditions -  °F | °C
As of 3:00 AM on Saturday 25 Oct 2014 (Local Time) from CYXR Reporting Station
Few Clouds Few Clouds  
Wind Chill: 33°   Ceiling: Unl
Heat Index: 37°   Visibility: 3mi
Dew Point: 37°   Wind: 6mph
Humidity: 100%   Direction: 140°SE
Pressure: 29.69"   Gusts: NA
Location:  47.2°N, 79.37°W
Report Text: CYXR 250700Z AUTO 14005KT 3SM FEW100 03/03 A2969 RMK SLP062
Loading
Personal Weather Stations






























Interactive Weather Map New forecast layout! Learn more

10-Day Weather Forecast

Advertisements
Track Severe Weather on mobile